Time;durP1;ratioP1;P1;durP2;ratioP2;P2;SDS_P1;SDS_P2;PMS_P1;PMS_P2;Temp;Humidity;BMP_temperature;BMP_pressure;BME280_temperature;BME280_humidity;BME280_pressure;Samples;Min_cycle;Max_cycle;Signal;HPM_P1;HPM_P2
2021/10/03 00:01:38;;;;;;;;;3.75;3.50;;;;;;;;5079030;27;45501;-72
2021/10/03 00:04:05;;;;;;;;;3.25;2.25;;;;;;;;5075592;27;45553;-71
2021/10/03 00:06:31;;;;;;;;;2.75;2.00;;;;;;;;5075161;27;46329;-71
2021/10/03 00:08:56;;;;;;;;;5.00;2.00;;;;;;;;5076557;27;45632;-72
2021/10/03 00:11:21;;;;;;;;;3.50;3.50;;;;;;;;5072569;27;46010;-72
2021/10/03 00:13:47;;;;;;;;;3.75;3.00;;;;;;;;5078617;27;45274;-72
2021/10/03 00:16:12;;;;;;;;;7.50;6.00;;;;;;;;5076780;27;47004;-72
2021/10/03 00:18:38;;;;;;;;;4.00;4.00;;;;;;;;5076506;27;45449;-72
2021/10/03 00:21:04;;;;;;;;;1.50;1.50;;;;;;;;5078792;27;45249;-72
2021/10/03 00:23:31;;;;;;;;;4.50;3.00;;;;;;;;5077153;27;45581;-72
2021/10/03 00:25:56;;;;;;;;;5.75;4.00;;;;;;;;5078834;27;46185;-71
2021/10/03 00:28:21;;;;;;;;;3.50;3.50;;;;;;;;5081159;27;45470;-71
2021/10/03 00:30:47;;;;;;;;;3.00;3.00;;;;;;;;5080429;27;45953;-72
2021/10/03 00:33:12;;;;;;;;;1.00;1.00;;;;;;;;5079783;27;45382;-72
2021/10/03 00:35:37;;;;;;;;;7.25;5.75;;;;;;;;5078159;27;46111;-72
2021/10/03 00:38:04;;;;;;;;;3.25;3.00;;;;;;;;5077866;27;45389;-71
2021/10/03 00:40:30;;;;;;;;;2.00;2.00;;;;;;;;5080665;27;45289;-71
2021/10/03 00:42:56;;;;;;;;;6.25;5.25;;;;;;;;5078526;27;45414;-72
2021/10/03 00:45:21;;;;;;;;;3.25;3.25;;;;;;;;5078646;27;45860;-72
2021/10/03 00:47:46;;;;;;;;;4.00;4.00;;;;;;;;5079492;27;45436;-72
2021/10/03 00:50:15;;;;;;;;;3.50;2.00;;;;;;;;5075751;27;45545;-72
2021/10/03 00:52:42;;;;;;;;;3.75;3.75;;;;;;;;5081643;27;45328;-72
2021/10/03 00:55:07;;;;;;;;;5.00;4.50;;;;;;;;5079460;27;46244;-72
2021/10/03 00:57:33;;;;;;;;;6.00;4.50;;;;;;;;5079829;27;45429;-72
2021/10/03 00:59:58;;;;;;;;;3.50;2.50;;;;;;;;5080074;27;45356;-72
2021/10/03 01:02:23;;;;;;;;;4.00;4.00;;;;;;;;5076375;27;45355;-73
2021/10/03 01:04:48;;;;;;;;;3.25;3.25;;;;;;;;5081108;27;45488;-72
2021/10/03 01:07:14;;;;;;;;;5.00;3.25;;;;;;;;5077382;27;46299;-69
2021/10/03 01:09:39;;;;;;;;;4.50;3.75;;;;;;;;5079999;27;45443;-70
2021/10/03 01:12:05;;;;;;;;;6.00;5.25;;;;;;;;5080154;27;45381;-70
2021/10/03 01:14:30;;;;;;;;;3.50;3.50;;;;;;;;5077189;27;45368;-72
2021/10/03 01:16:57;;;;;;;;;4.75;4.75;;;;;;;;5079803;27;45417;-70
2021/10/03 01:19:23;;;;;;;;;4.00;4.00;;;;;;;;5081325;27;45289;-70
2021/10/03 01:21:48;;;;;;;;;3.25;2.25;;;;;;;;5077927;27;45621;-69
2021/10/03 01:24:16;;;;;;;;;4.50;3.75;;;;;;;;5077936;27;46302;-68
2021/10/03 01:26:43;;;;;;;;;4.00;4.00;;;;;;;;5077198;27;45536;-69
2021/10/03 01:29:09;;;;;;;;;4.00;4.00;;;;;;;;5076702;27;45425;-69
2021/10/03 01:31:35;;;;;;;;;4.00;4.00;;;;;;;;5081400;27;45481;-68
2021/10/03 01:34:03;;;;;;;;;5.00;2.25;;;;;;;;5079566;27;45443;-70
2021/10/03 01:36:29;;;;;;;;;9.00;7.50;;;;;;;;5079413;27;45500;-69
2021/10/03 01:38:54;;;;;;;;;7.00;7.00;;;;;;;;5079370;27;45454;-71
2021/10/03 01:41:20;;;;;;;;;7.75;5.25;;;;;;;;5075138;27;45493;-69
2021/10/03 01:43:45;;;;;;;;;4.00;4.00;;;;;;;;5080935;27;45346;-70
2021/10/03 01:46:10;;;;;;;;;6.50;5.25;;;;;;;;5078907;27;45311;-69
2021/10/03 01:48:36;;;;;;;;;7.00;5.00;;;;;;;;5060556;28;45403;-70
2021/10/03 01:51:05;;;;;;;;;6.00;6.00;;;;;;;;5078950;27;45418;-71
2021/10/03 01:53:34;;;;;;;;;2.00;2.00;;;;;;;;5075962;27;47046;-71
2021/10/03 01:56:02;;;;;;;;;5.50;5.25;;;;;;;;5078069;27;45854;-71
2021/10/03 01:58:31;;;;;;;;;6.00;4.25;;;;;;;;5081487;27;45463;-70
2021/10/03 02:01:00;;;;;;;;;7.00;7.00;;;;;;;;5079472;27;45311;-70
2021/10/03 02:03:28;;;;;;;;;7.25;5.75;;;;;;;;5077816;27;45489;-70
2021/10/03 02:05:56;;;;;;;;;6.00;5.50;;;;;;;;5077864;27;45487;-72
2021/10/03 02:08:22;;;;;;;;;6.75;6.00;;;;;;;;5074835;27;45392;-71
2021/10/03 02:10:50;;;;;;;;;3.75;2.50;;;;;;;;5081206;27;45394;-71
2021/10/03 02:13:17;;;;;;;;;5.25;5.25;;;;;;;;5078978;27;46206;-71
2021/10/03 02:15:46;;;;;;;;;4.00;4.00;;;;;;;;5078663;27;45575;-71
2021/10/03 02:18:13;;;;;;;;;4.50;4.50;;;;;;;;5079264;27;45290;-71
2021/10/03 02:20:40;;;;;;;;;9.00;8.00;;;;;;;;5077283;27;45454;-70
2021/10/03 02:23:07;;;;;;;;;5.75;5.25;;;;;;;;5075323;27;45383;-71
2021/10/03 02:25:32;;;;;;;;;6.25;6.25;;;;;;;;5081092;27;45438;-70
2021/10/03 02:28:00;;;;;;;;;6.75;6.25;;;;;;;;5078959;27;45374;-71
2021/10/03 02:30:26;;;;;;;;;9.25;6.50;;;;;;;;5078555;27;45548;-69
2021/10/03 02:32:52;;;;;;;;;5.00;5.00;;;;;;;;5078415;27;46202;-70
2021/10/03 02:35:17;;;;;;;;;8.50;4.50;;;;;;;;5074436;27;45379;-71
2021/10/03 02:37:43;;;;;;;;;8.50;4.75;;;;;;;;5080519;27;45598;-70
2021/10/03 02:40:10;;;;;;;;;3.50;3.50;;;;;;;;5077601;27;45553;-71
2021/10/03 02:42:35;;;;;;;;;4.00;4.00;;;;;;;;5076981;27;47507;-71
2021/10/03 02:45:01;;;;;;;;;7.75;6.75;;;;;;;;5075895;27;45318;-71
2021/10/03 02:47:28;;;;;;;;;6.50;5.50;;;;;;;;5075140;27;45439;-73
2021/10/03 02:49:53;;;;;;;;;7.25;7.25;;;;;;;;5078935;27;45318;-71
2021/10/03 02:52:19;;;;;;;;;7.00;5.00;;;;;;;;5078661;27;45279;-72
2021/10/03 02:54:44;;;;;;;;;2.75;2.75;;;;;;;;5086117;27;45275;-71
2021/10/03 02:57:10;;;;;;;;;6.50;5.00;;;;;;;;5087133;27;45384;-71
2021/10/03 02:59:35;;;;;;;;;7.25;6.25;;;;;;;;5076558;27;45501;-70
2021/10/03 03:02:02;;;;;;;;;6.50;5.25;;;;;;;;5075705;27;47170;-71
2021/10/03 03:04:28;;;;;;;;;6.75;6.75;;;;;;;;5077713;27;45462;-71
2021/10/03 03:06:53;;;;;;;;;7.00;7.00;;;;;;;;5077268;27;45414;-71
2021/10/03 03:09:18;;;;;;;;;2.75;2.75;;;;;;;;5077872;27;45461;-71
2021/10/03 03:11:44;;;;;;;;;8.25;6.50;;;;;;;;5058421;27;48347;-72
2021/10/03 03:14:09;;;;;;;;;4.50;4.00;;;;;;;;5074029;27;45357;-72
2021/10/03 03:16:41;;;;;;;;;4.50;3.75;;;;;;;;5079764;27;45244;-72
2021/10/03 03:19:06;;;;;;;;;3.75;3.75;;;;;;;;5076295;27;45490;-70
2021/10/03 03:21:31;;;;;;;;;3.75;3.00;;;;;;;;5076034;27;45651;-71
2021/10/03 03:23:56;;;;;;;;;7.00;4.25;;;;;;;;5077660;27;45557;-72
2021/10/03 03:26:21;;;;;;;;;5.50;4.00;;;;;;;;5073680;27;45539;-71
2021/10/03 03:28:47;;;;;;;;;8.50;6.25;;;;;;;;5079184;27;45224;-71
2021/10/03 03:31:12;;;;;;;;;4.25;4.25;;;;;;;;5077453;27;45470;-71
2021/10/03 03:33:37;;;;;;;;;9.75;8.25;;;;;;;;5077438;27;45428;-72
2021/10/03 03:36:02;;;;;;;;;7.00;4.50;;;;;;;;5077651;27;45492;-71
2021/10/03 03:38:33;;;;;;;;;7.00;7.00;;;;;;;;5074197;27;45477;-73
2021/10/03 03:40:58;;;;;;;;;11.00;9.00;;;;;;;;5075855;27;45430;-72
2021/10/03 03:43:23;;;;;;;;;5.00;5.00;;;;;;;;5078592;27;45424;-71
2021/10/03 03:45:48;;;;;;;;;8.00;7.50;;;;;;;;5077668;27;45501;-73
2021/10/03 03:48:13;;;;;;;;;8.00;8.00;;;;;;;;5076956;27;45481;-72
2021/10/03 03:50:40;;;;;;;;;7.50;4.00;;;;;;;;5075443;27;47017;-71
2021/10/03 03:53:05;;;;;;;;;3.75;3.25;;;;;;;;5074301;27;45554;-71
2021/10/03 03:55:30;;;;;;;;;6.25;4.50;;;;;;;;5080856;27;45378;-71
2021/10/03 03:57:56;;;;;;;;;6.75;4.75;;;;;;;;5079461;27;45388;-71
2021/10/03 04:00:21;;;;;;;;;4.25;3.00;;;;;;;;5079454;27;45485;-70
2021/10/03 04:02:46;;;;;;;;;8.50;8.50;;;;;;;;5078711;27;45477;-71
2021/10/03 04:05:11;;;;;;;;;5.75;5.75;;;;;;;;5076851;27;45398;-71
2021/10/03 04:07:37;;;;;;;;;3.75;2.50;;;;;;;;5083027;27;45425;-71
2021/10/03 04:10:03;;;;;;;;;11.00;7.50;;;;;;;;5080905;27;46315;-71
2021/10/03 04:12:28;;;;;;;;;4.50;3.75;;;;;;;;5062363;28;45462;-71
2021/10/03 04:14:53;;;;;;;;;5.00;4.75;;;;;;;;5080752;27;45402;-71
2021/10/03 04:17:18;;;;;;;;;6.00;6.00;;;;;;;;5076621;27;45316;-71
2021/10/03 04:19:43;;;;;;;;;5.00;2.00;;;;;;;;5082494;27;45975;-71
2021/10/03 04:22:09;;;;;;;;;5.00;5.00;;;;;;;;5080861;27;45417;-71
2021/10/03 04:24:34;;;;;;;;;7.50;7.50;;;;;;;;5080675;27;45508;-72
2021/10/03 04:26:59;;;;;;;;;8.50;7.50;;;;;;;;5080660;27;45441;-71
2021/10/03 04:29:24;;;;;;;;;9.00;8.25;;;;;;;;5077158;27;45280;-73
2021/10/03 04:31:49;;;;;;;;;8.00;8.00;;;;;;;;5062886;28;45336;-70
2021/10/03 04:34:14;;;;;;;;;10.25;8.50;;;;;;;;5080518;27;45366;-73
2021/10/03 04:36:40;;;;;;;;;7.25;7.00;;;;;;;;5078982;27;45456;-73
2021/10/03 04:39:05;;;;;;;;;11.75;10.00;;;;;;;;5078120;27;46920;-73
2021/10/03 04:41:31;;;;;;;;;8.25;7.25;;;;;;;;5077588;27;45316;-73
2021/10/03 04:43:56;;;;;;;;;7.75;6.50;;;;;;;;5079619;27;45391;-73
2021/10/03 04:46:21;;;;;;;;;8.00;7.50;;;;;;;;5081306;27;45372;-73
2021/10/03 04:48:46;;;;;;;;;9.75;9.75;;;;;;;;5079304;27;46303;-73
2021/10/03 04:51:11;;;;;;;;;8.50;7.50;;;;;;;;5079875;27;45384;-73
2021/10/03 04:53:37;;;;;;;;;10.75;8.00;;;;;;;;5078072;27;45338;-73
2021/10/03 04:56:02;;;;;;;;;7.75;6.50;;;;;;;;5077563;27;45355;-73
2021/10/03 04:58:27;;;;;;;;;9.75;9.75;;;;;;;;5079865;27;46967;-73
2021/10/03 05:00:52;;;;;;;;;8.00;8.00;;;;;;;;5080139;27;45535;-72
2021/10/03 05:03:18;;;;;;;;;13.00;10.50;;;;;;;;5079654;27;45383;-73
2021/10/03 05:05:43;;;;;;;;;8.50;8.50;;;;;;;;5079172;27;45428;-73
2021/10/03 05:08:12;;;;;;;;;10.25;9.50;;;;;;;;5075103;27;46845;-73
2021/10/03 05:10:37;;;;;;;;;8.50;8.25;;;;;;;;5081615;27;45276;-73
2021/10/03 05:13:02;;;;;;;;;12.50;11.50;;;;;;;;5079438;27;45603;-72
2021/10/03 05:15:27;;;;;;;;;10.50;8.25;;;;;;;;5078642;27;45321;-72
2021/10/03 05:17:53;;;;;;;;;5.75;5.75;;;;;;;;5077533;27;46301;-72
2021/10/03 05:20:18;;;;;;;;;4.25;4.25;;;;;;;;5075497;27;45465;-73
2021/10/03 05:22:43;;;;;;;;;4.00;4.00;;;;;;;;5081670;27;45374;-74
2021/10/03 05:25:09;;;;;;;;;0.00;0.00;;;;;;;;5079613;27;45606;-72
2021/10/03 05:27:35;;;;;;;;;0.75;0.75;;;;;;;;5079098;27;46297;-73
2021/10/03 05:30:00;;;;;;;;;0.00;0.00;;;;;;;;5079150;27;45471;-73
2021/10/03 05:32:25;;;;;;;;;0.00;0.00;;;;;;;;5075463;27;45413;-72
2021/10/03 05:34:50;;;;;;;;;0.00;0.00;;;;;;;;5080050;27;45287;-73
2021/10/03 05:37:15;;;;;;;;;0.00;0.00;;;;;;;;5060648;28;46500;-72
2021/10/03 05:39:40;;;;;;;;;0.00;0.00;;;;;;;;5079239;27;45382;-72
2021/10/03 05:42:06;;;;;;;;;1.00;0.00;;;;;;;;5079354;27;45382;-72
2021/10/03 05:44:31;;;;;;;;;0.75;0.00;;;;;;;;5076469;27;45556;-73
2021/10/03 05:46:56;;;;;;;;;0.00;0.00;;;;;;;;5077774;27;46024;-72
2021/10/03 05:49:22;;;;;;;;;1.00;0.00;;;;;;;;5079947;27;45610;-72
2021/10/03 05:51:47;;;;;;;;;0.00;0.00;;;;;;;;5078808;27;45582;-72
2021/10/03 05:54:12;;;;;;;;;1.00;0.00;;;;;;;;5077537;27;45351;-72
2021/10/03 05:56:37;;;;;;;;;0.00;0.00;;;;;;;;5075483;27;45386;-72
2021/10/03 05:59:07;;;;;;;;;0.00;0.00;;;;;;;;5076587;27;45624;-72
2021/10/03 06:01:32;;;;;;;;;0.00;0.00;;;;;;;;5079449;27;45398;-72
2021/10/03 06:03:57;;;;;;;;;0.00;0.00;;;;;;;;5078693;27;45374;-72
2021/10/03 06:06:23;;;;;;;;;0.00;0.00;;;;;;;;5078844;27;46272;-72
2021/10/03 06:08:48;;;;;;;;;0.00;0.00;;;;;;;;5078258;27;45414;-72
2021/10/03 06:11:13;;;;;;;;;0.00;0.00;;;;;;;;5074729;27;45312;-72
2021/10/03 06:13:40;;;;;;;;;0.50;0.00;;;;;;;;5080352;27;45403;-71
2021/10/03 06:16:05;;;;;;;;;1.00;1.00;;;;;;;;5078447;27;46951;-73
2021/10/03 06:18:31;;;;;;;;;0.00;0.00;;;;;;;;5059773;28;45814;-71
2021/10/03 06:20:56;;;;;;;;;0.00;0.00;;;;;;;;5078912;27;45298;-73
2021/10/03 06:23:21;;;;;;;;;0.00;0.00;;;;;;;;5074459;27;45456;-73
2021/10/03 06:25:46;;;;;;;;;4.00;4.00;;;;;;;;5080119;27;46227;-72
2021/10/03 06:28:12;;;;;;;;;0.00;0.00;;;;;;;;5077755;27;45490;-73
2021/10/03 06:30:37;;;;;;;;;0.00;0.00;;;;;;;;5078227;27;45480;-73
2021/10/03 06:33:02;;;;;;;;;1.00;0.00;;;;;;;;5076680;27;45424;-72
2021/10/03 06:35:28;;;;;;;;;0.00;0.00;;;;;;;;5073346;27;45881;-72
2021/10/03 06:37:54;;;;;;;;;1.00;0.00;;;;;;;;5059516;28;45379;-72
2021/10/03 06:40:19;;;;;;;;;0.75;0.75;;;;;;;;5078423;27;45465;-73
2021/10/03 06:42:44;;;;;;;;;0.00;0.00;;;;;;;;5077301;27;45587;-74
2021/10/03 06:45:09;;;;;;;;;0.00;0.00;;;;;;;;5077815;27;45997;-73
2021/10/03 06:47:35;;;;;;;;;1.00;0.00;;;;;;;;5075263;27;45425;-72
2021/10/03 06:50:00;;;;;;;;;0.00;0.00;;;;;;;;5076265;27;45372;-73
2021/10/03 06:52:25;;;;;;;;;0.25;0.00;;;;;;;;5079111;27;45474;-73
2021/10/03 06:54:50;;;;;;;;;0.00;0.00;;;;;;;;5076891;27;46194;-73
2021/10/03 06:57:15;;;;;;;;;0.00;0.00;;;;;;;;5077113;27;45452;-71
2021/10/03 06:59:41;;;;;;;;;0.00;0.00;;;;;;;;5077218;27;45458;-72
2021/10/03 07:02:10;;;;;;;;;2.00;1.00;;;;;;;;5074812;27;45315;-73
2021/10/03 07:04:35;;;;;;;;;2.00;0.00;;;;;;;;5077525;27;45382;-72
2021/10/03 07:07:00;;;;;;;;;1.00;1.00;;;;;;;;5077265;27;45591;-72
2021/10/03 07:09:26;;;;;;;;;0.00;0.00;;;;;;;;5077842;27;45499;-73
2021/10/03 07:11:51;;;;;;;;;2.75;2.00;;;;;;;;5075867;27;45335;-73
2021/10/03 07:14:16;;;;;;;;;0.50;0.50;;;;;;;;5071632;28;46948;-72
2021/10/03 07:16:41;;;;;;;;;1.75;1.00;;;;;;;;5079024;27;45319;-73
2021/10/03 07:19:07;;;;;;;;;1.25;0.00;;;;;;;;5077943;27;45613;-73
2021/10/03 07:21:32;;;;;;;;;0.00;0.00;;;;;;;;5077864;27;45480;-72
2021/10/03 07:23:57;;;;;;;;;0.00;0.00;;;;;;;;5077327;27;46800;-73
2021/10/03 07:26:22;;;;;;;;;2.00;2.00;;;;;;;;5073048;27;45545;-72
2021/10/03 07:28:47;;;;;;;;;1.75;1.00;;;;;;;;5078852;27;45472;-72
2021/10/03 07:31:13;;;;;;;;;0.00;0.00;;;;;;;;5086573;27;45303;-72
2021/10/03 07:33:38;;;;;;;;;1.75;1.00;;;;;;;;5085807;27;45614;-73
2021/10/03 07:36:03;;;;;;;;;0.50;0.50;;;;;;;;5081046;27;45339;-72
2021/10/03 07:38:29;;;;;;;;;1.00;1.00;;;;;;;;5059535;27;45384;-73
2021/10/03 07:40:54;;;;;;;;;0.00;0.00;;;;;;;;5080330;27;45429;-72
2021/10/03 07:43:19;;;;;;;;;0.00;0.00;;;;;;;;5081397;27;46183;-71
2021/10/03 07:45:44;;;;;;;;;2.00;1.50;;;;;;;;5080528;27;45506;-72
2021/10/03 07:48:09;;;;;;;;;0.50;0.50;;;;;;;;5080757;27;45524;-73
2021/10/03 07:50:35;;;;;;;;;1.75;0.00;;;;;;;;5077008;27;45337;-73
2021/10/03 07:53:00;;;;;;;;;1.00;1.00;;;;;;;;5060208;28;47454;-72
2021/10/03 07:55:28;;;;;;;;;1.75;1.75;;;;;;;;5079516;27;45514;-73
2021/10/03 07:57:59;;;;;;;;;1.75;1.00;;;;;;;;5080617;27;45451;-72
2021/10/03 08:00:24;;;;;;;;;0.75;0.00;;;;;;;;5080551;27;45552;-72
2021/10/03 08:02:49;;;;;;;;;0.50;0.50;;;;;;;;5079958;27;45371;-72
2021/10/03 08:05:14;;;;;;;;;2.75;1.00;;;;;;;;5076080;27;45472;-73
2021/10/03 08:07:40;;;;;;;;;1.00;1.00;;;;;;;;5082436;27;45303;-73
2021/10/03 08:10:05;;;;;;;;;2.00;2.00;;;;;;;;5079620;27;45387;-72
2021/10/03 08:12:31;;;;;;;;;2.00;2.00;;;;;;;;5079459;27;48330;-73
2021/10/03 08:14:57;;;;;;;;;1.75;1.25;;;;;;;;5080201;27;45488;-73
2021/10/03 08:17:22;;;;;;;;;1.00;1.00;;;;;;;;5075447;27;45462;-72
2021/10/03 08:19:47;;;;;;;;;1.00;1.00;;;;;;;;5081805;27;45395;-73
2021/10/03 08:22:13;;;;;;;;;2.00;2.00;;;;;;;;5080141;27;47029;-73
2021/10/03 08:24:40;;;;;;;;;2.00;2.00;;;;;;;;5079817;27;45454;-72
2021/10/03 08:27:05;;;;;;;;;1.75;1.75;;;;;;;;5080014;27;45768;-74
2021/10/03 08:29:31;;;;;;;;;2.00;2.00;;;;;;;;5077904;27;45292;-73
2021/10/03 08:31:56;;;;;;;;;3.50;2.00;;;;;;;;5079145;27;46511;-73
2021/10/03 08:34:21;;;;;;;;;2.00;1.25;;;;;;;;5079486;27;45374;-71
2021/10/03 08:36:46;;;;;;;;;2.00;2.00;;;;;;;;5061204;28;45344;-73
2021/10/03 08:39:12;;;;;;;;;1.00;1.00;;;;;;;;5079489;27;45482;-73
2021/10/03 08:41:37;;;;;;;;;1.50;1.50;;;;;;;;5077530;27;45487;-73
2021/10/03 08:44:02;;;;;;;;;1.25;1.25;;;;;;;;5077025;27;45343;-72
2021/10/03 08:46:28;;;;;;;;;3.75;1.50;;;;;;;;5081374;27;45403;-73
2021/10/03 08:48:54;;;;;;;;;1.25;0.00;;;;;;;;5079516;27;45506;-72
2021/10/03 08:51:19;;;;;;;;;1.75;0.00;;;;;;;;5079228;27;45917;-73
2021/10/03 08:53:45;;;;;;;;;1.00;1.00;;;;;;;;5078020;27;45411;-74
2021/10/03 08:56:10;;;;;;;;;1.50;1.00;;;;;;;;5075506;27;45423;-73
2021/10/03 08:58:35;;;;;;;;;1.25;0.25;;;;;;;;5062723;28;45414;-73
2021/10/03 09:01:00;;;;;;;;;3.00;1.75;;;;;;;;5078906;27;46502;-73
2021/10/03 09:03:25;;;;;;;;;1.00;1.00;;;;;;;;5078836;27;45515;-72
2021/10/03 09:05:55;;;;;;;;;2.50;2.00;;;;;;;;5079371;27;45551;-73
2021/10/03 09:08:22;;;;;;;;;2.25;2.25;;;;;;;;5039682;27;45344;-73
2021/10/03 09:10:59;;;;;;;;;2.50;2.50;;;;;;;;5080662;27;46458;-73
2021/10/03 09:13:30;;;;;;;;;3.25;3.25;;;;;;;;5080051;27;45884;-72
2021/10/03 09:16:04;;;;;;;;;6.25;6.25;;;;;;;;5078603;27;45492;-72
2021/10/03 09:18:47;;;;;;;;;1.00;1.00;;;;;;;;5078676;27;45336;-73
2021/10/03 09:21:31;;;;;;;;;0.25;0.25;;;;;;;;5078630;27;47310;-72
2021/10/03 09:23:57;;;;;;;;;1.50;1.50;;;;;;;;5077440;27;45427;-72
2021/10/03 09:26:22;;;;;;;;;1.75;1.25;;;;;;;;5075065;27;45423;-72
2021/10/03 09:28:48;;;;;;;;;2.50;2.50;;;;;;;;5080224;27;45256;-72
2021/10/03 09:31:17;;;;;;;;;2.00;2.00;;;;;;;;5077025;27;47207;-70
2021/10/03 09:33:53;;;;;;;;;1.00;0.25;;;;;;;;5078547;27;45516;-71
2021/10/03 09:36:25;;;;;;;;;1.00;1.00;;;;;;;;5078738;27;45397;-70
2021/10/03 09:38:58;;;;;;;;;2.00;2.00;;;;;;;;5078423;27;45444;-72
2021/10/03 09:41:28;;;;;;;;;0.00;0.00;;;;;;;;5059181;27;46444;-73
2021/10/03 09:43:57;;;;;;;;;0.00;0.00;;;;;;;;5078212;27;45297;-73
2021/10/03 09:46:28;;;;;;;;;0.00;0.00;;;;;;;;5079819;27;45411;-72
2021/10/03 09:48:53;;;;;;;;;0.00;0.00;;;;;;;;5077133;27;45620;-73
2021/10/03 09:51:19;;;;;;;;;0.00;0.00;;;;;;;;5076434;27;45426;-73
2021/10/03 09:53:45;;;;;;;;;0.00;0.00;;;;;;;;5058692;27;45591;-73
2021/10/03 09:56:12;;;;;;;;;0.00;0.00;;;;;;;;5074805;27;45506;-73
2021/10/03 09:58:39;;;;;;;;;0.00;0.00;;;;;;;;5080000;27;45560;-74
2021/10/03 10:01:04;;;;;;;;;0.00;0.00;;;;;;;;5078150;27;47011;-73
2021/10/03 10:03:30;;;;;;;;;0.00;0.00;;;;;;;;5077913;27;45399;-74
2021/10/03 10:05:56;;;;;;;;;0.00;0.00;;;;;;;;5078086;27;45453;-73
2021/10/03 10:08:21;;;;;;;;;0.00;0.00;;;;;;;;5074247;27;45407;-74
2021/10/03 10:10:47;;;;;;;;;0.75;0.00;;;;;;;;5079736;27;46405;-72
2021/10/03 10:13:15;;;;;;;;;0.00;0.00;;;;;;;;5077769;27;45500;-72
2021/10/03 10:15:40;;;;;;;;;0.00;0.00;;;;;;;;5077717;27;45363;-72
2021/10/03 10:18:25;;;;;;;;;0.00;0.00;;;;;;;;5074930;27;45422;-73
2021/10/03 10:20:53;;;;;;;;;0.00;0.00;;;;;;;;5076418;27;46311;-74
2021/10/03 10:23:19;;;;;;;;;0.00;0.00;;;;;;;;5057370;28;45270;-73
2021/10/03 10:25:54;;;;;;;;;0.00;0.00;;;;;;;;5079800;27;45330;-73
2021/10/03 10:28:28;;;;;;;;;1.00;1.00;;;;;;;;5076644;27;45277;-73
2021/10/03 10:31:04;;;;;;;;;2.00;2.00;;;;;;;;5075840;27;47005;-72
2021/10/03 10:33:48;;;;;;;;;0.00;0.00;;;;;;;;5077239;27;45450;-71
2021/10/03 10:36:14;;;;;;;;;0.00;0.00;;;;;;;;5077348;27;45533;-73
2021/10/03 10:38:39;;;;;;;;;0.00;0.00;;;;;;;;5074922;27;46368;-72
2021/10/03 10:41:24;;;;;;;;;0.00;0.00;;;;;;;;5073706;27;46589;-73
2021/10/03 10:43:50;;;;;;;;;0.00;0.00;;;;;;;;5086900;27;45268;-70
2021/10/03 10:46:33;;;;;;;;;0.00;0.00;;;;;;;;5076839;27;45471;-71
2021/10/03 10:49:17;;;;;;;;;1.00;1.00;;;;;;;;5077054;27;45499;-71
2021/10/03 10:51:42;;;;;;;;;0.00;0.00;;;;;;;;5076975;27;46130;-70
2021/10/03 10:54:14;;;;;;;;;1.25;0.25;;;;;;;;5077181;27;45481;-70
2021/10/03 10:56:39;;;;;;;;;0.00;0.00;;;;;;;;5075547;27;45502;-71
2021/10/03 10:59:05;;;;;;;;;1.00;1.00;;;;;;;;5074093;27;45359;-70
2021/10/03 11:01:30;;;;;;;;;0.00;0.00;;;;;;;;5078784;27;45371;-71
2021/10/03 11:03:56;;;;;;;;;0.00;0.00;;;;;;;;5074652;27;45389;-72
2021/10/03 11:06:21;;;;;;;;;0.00;0.00;;;;;;;;5074623;27;45538;-71
2021/10/03 11:09:05;;;;;;;;;3.80;2.80;;;;;;;;5074746;27;45339;-73
2021/10/03 11:11:32;;;;;;;;;2.00;2.00;;;;;;;;5059506;27;46363;-72
2021/10/03 11:13:58;;;;;;;;;1.00;1.00;;;;;;;;5076240;27;45553;-71
2021/10/03 11:16:34;;;;;;;;;1.00;0.00;;;;;;;;5059725;28;45511;-71
2021/10/03 11:19:10;;;;;;;;;0.00;0.00;;;;;;;;5076643;27;45432;-72
2021/10/03 11:21:39;;;;;;;;;0.25;0.25;;;;;;;;5076262;27;47149;-71
2021/10/03 11:24:06;;;;;;;;;0.00;0.00;;;;;;;;5076682;27;45634;-70
2021/10/03 11:26:43;;;;;;;;;1.00;1.00;;;;;;;;5057494;27;45573;-73
2021/10/03 11:29:09;;;;;;;;;0.00;0.00;;;;;;;;5073292;27;49003;-72
2021/10/03 11:31:38;;;;;;;;;0.00;0.00;;;;;;;;5078318;27;45307;-73
2021/10/03 11:34:05;;;;;;;;;0.00;0.00;;;;;;;;5076004;27;45422;-72
2021/10/03 11:36:30;;;;;;;;;0.25;0.25;;;;;;;;5076233;27;45479;-72
2021/10/03 11:39:00;;;;;;;;;0.00;0.00;;;;;;;;5076392;27;45485;-72
2021/10/03 11:41:26;;;;;;;;;0.00;0.00;;;;;;;;5072712;27;46895;-72
2021/10/03 11:43:52;;;;;;;;;0.00;0.00;;;;;;;;5077340;27;45309;-71
2021/10/03 11:46:17;;;;;;;;;0.00;0.00;;;;;;;;5075634;27;45461;-72
2021/10/03 11:48:42;;;;;;;;;0.00;0.00;;;;;;;;5081558;27;45395;-72
2021/10/03 11:51:07;;;;;;;;;0.00;0.00;;;;;;;;5085827;27;46215;-73
2021/10/03 11:53:34;;;;;;;;;0.75;0.75;;;;;;;;5055255;27;45482;-72
2021/10/03 11:56:06;;;;;;;;;0.00;0.00;;;;;;;;5075079;27;45401;-71
2021/10/03 11:58:35;;;;;;;;;0.00;0.00;;;;;;;;5076178;27;45277;-73
2021/10/03 12:01:05;;;;;;;;;0.00;0.00;;;;;;;;5075266;27;45506;-71
2021/10/03 12:03:32;;;;;;;;;3.00;0.75;;;;;;;;5075631;27;45463;-72
2021/10/03 12:05:58;;;;;;;;;0.00;0.00;;;;;;;;5076336;27;45516;-71
2021/10/03 12:08:24;;;;;;;;;0.75;0.50;;;;;;;;5072702;27;45426;-72
2021/10/03 12:10:51;;;;;;;;;0.00;0.00;;;;;;;;5077261;27;46295;-71
2021/10/03 12:13:20;;;;;;;;;0.00;0.00;;;;;;;;5076037;27;45479;-71
2021/10/03 12:15:46;;;;;;;;;0.67;0.67;;;;;;;;5075602;27;47378;-72
2021/10/03 12:18:32;;;;;;;;;0.00;0.00;;;;;;;;5079369;27;45521;-73
2021/10/03 12:21:00;;;;;;;;;0.00;0.00;;;;;;;;5064471;27;46196;-72
2021/10/03 12:23:44;;;;;;;;;0.00;0.00;;;;;;;;5074352;27;45558;-72
2021/10/03 12:26:14;;;;;;;;;0.33;0.33;;;;;;;;5076080;27;45398;-72
2021/10/03 12:28:58;;;;;;;;;3.25;3.25;;;;;;;;5080678;27;45524;-71
2021/10/03 12:31:33;;;;;;;;;0.00;0.00;;;;;;;;5079637;27;46628;-71
2021/10/03 12:33:58;;;;;;;;;1.00;1.00;;;;;;;;5078819;27;45476;-71
2021/10/03 12:36:23;;;;;;;;;0.00;0.00;;;;;;;;5061624;28;45330;-71
2021/10/03 12:38:48;;;;;;;;;1.33;1.33;;;;;;;;5078911;27;45309;-71
2021/10/03 12:41:14;;;;;;;;;1.67;1.67;;;;;;;;5056752;28;46921;-70
2021/10/03 12:43:50;;;;;;;;;2.25;1.00;;;;;;;;5080727;27;45250;-70
2021/10/03 12:46:15;;;;;;;;;2.00;2.00;;;;;;;;5076878;27;45508;-71
2021/10/03 12:48:40;;;;;;;;;1.00;1.00;;;;;;;;5078308;27;45328;-72
2021/10/03 12:51:05;;;;;;;;;0.33;0.33;;;;;;;;5078922;27;45367;-70
2021/10/03 12:53:31;;;;;;;;;1.33;0.00;;;;;;;;5075974;27;45393;-72
2021/10/03 12:55:56;;;;;;;;;1.00;0.00;;;;;;;;5061005;28;45458;-70
2021/10/03 12:58:21;;;;;;;;;0.00;0.00;;;;;;;;5079766;27;45504;-70
2021/10/03 13:00:46;;;;;;;;;0.00;0.00;;;;;;;;5078547;27;45484;-71
2021/10/03 13:03:11;;;;;;;;;1.33;0.00;;;;;;;;5077357;27;45573;-71
2021/10/03 13:05:37;;;;;;;;;0.00;0.00;;;;;;;;5075041;27;45284;-71
2021/10/03 13:08:02;;;;;;;;;0.00;0.00;;;;;;;;5076968;27;45446;-71
2021/10/03 13:10:27;;;;;;;;;1.00;1.00;;;;;;;;5080529;27;46261;-71
2021/10/03 13:12:52;;;;;;;;;2.00;0.00;;;;;;;;5077976;27;45319;-70
2021/10/03 13:15:17;;;;;;;;;0.00;0.00;;;;;;;;5077956;27;45442;-72
2021/10/03 13:17:44;;;;;;;;;0.00;0.00;;;;;;;;5076912;27;45546;-73
2021/10/03 13:20:10;;;;;;;;;0.00;0.00;;;;;;;;5075308;27;47178;-71
2021/10/03 13:22:35;;;;;;;;;0.00;0.00;;;;;;;;5080709;27;45300;-72
2021/10/03 13:25:00;;;;;;;;;1.00;1.00;;;;;;;;5078043;27;45362;-72
2021/10/03 13:27:26;;;;;;;;;0.75;0.00;;;;;;;;5077668;27;45495;-72
2021/10/03 13:29:51;;;;;;;;;0.00;0.00;;;;;;;;5058189;27;47120;-72
2021/10/03 13:32:19;;;;;;;;;0.00;0.00;;;;;;;;5073905;27;45338;-72
2021/10/03 13:34:44;;;;;;;;;1.00;0.00;;;;;;;;5080192;27;45368;-72
2021/10/03 13:37:09;;;;;;;;;0.00;0.00;;;;;;;;5078251;27;45988;-72
2021/10/03 13:39:34;;;;;;;;;0.00;0.00;;;;;;;;5060130;27;47570;-73
2021/10/03 13:42:00;;;;;;;;;0.00;0.00;;;;;;;;5076648;27;45555;-72
2021/10/03 13:44:25;;;;;;;;;0.00;0.00;;;;;;;;5072102;27;45428;-71
2021/10/03 13:46:50;;;;;;;;;0.00;0.00;;;;;;;;5079696;27;45254;-70
2021/10/03 13:49:15;;;;;;;;;0.00;0.00;;;;;;;;5078320;27;46985;-72
2021/10/03 13:51:40;;;;;;;;;1.00;0.00;;;;;;;;5078501;27;45565;-73
2021/10/03 13:54:05;;;;;;;;;0.00;0.00;;;;;;;;5078001;27;45279;-74
2021/10/03 13:56:31;;;;;;;;;0.00;0.00;;;;;;;;5075108;27;45541;-73
2021/10/03 13:58:56;;;;;;;;;0.00;0.00;;;;;;;;5077673;27;46310;-73
2021/10/03 14:01:21;;;;;;;;;0.00;0.00;;;;;;;;5078255;27;45377;-73
2021/10/03 14:03:46;;;;;;;;;0.00;0.00;;;;;;;;5078024;27;45637;-74
2021/10/03 14:06:12;;;;;;;;;0.00;0.00;;;;;;;;5077936;27;45220;-73
2021/10/03 14:08:37;;;;;;;;;0.00;0.00;;;;;;;;5075649;27;45538;-73
2021/10/03 14:11:02;;;;;;;;;0.00;0.00;;;;;;;;5076308;27;45375;-72
2021/10/03 14:13:27;;;;;;;;;1.50;0.00;;;;;;;;5079424;27;46950;-71
2021/10/03 14:15:53;;;;;;;;;0.00;0.00;;;;;;;;5078072;27;45494;-72
2021/10/03 14:18:18;;;;;;;;;1.00;0.00;;;;;;;;5077915;27;46182;-73
2021/10/03 14:20:43;;;;;;;;;1.00;0.00;;;;;;;;5075164;27;45360;-72
2021/10/03 14:23:09;;;;;;;;;0.00;0.00;;;;;;;;5075063;27;45552;-72
2021/10/03 14:25:36;;;;;;;;;0.00;0.00;;;;;;;;5077864;27;45341;-72
2021/10/03 14:28:02;;;;;;;;;0.00;0.00;;;;;;;;5077097;27;45997;-74
2021/10/03 14:30:28;;;;;;;;;1.00;0.00;;;;;;;;5077264;27;45526;-73
2021/10/03 14:32:54;;;;;;;;;0.00;0.00;;;;;;;;5077961;27;45344;-73
2021/10/03 14:35:19;;;;;;;;;0.00;0.00;;;;;;;;5073457;27;45466;-72
2021/10/03 14:37:44;;;;;;;;;0.00;0.00;;;;;;;;5079264;27;46351;-73
2021/10/03 14:40:10;;;;;;;;;0.00;0.00;;;;;;;;5077227;27;45243;-72